Ceffco, Illinois
Current Conditions -  °F | °C
As of 3:35 PM on Friday 24 Oct 2014 (Local Time) from KCWI Reporting Station
Clear Clear  
Wind Chill: 66°   Ceiling: Unl
Heat Index: 66°   Visibility: 10mi
Dew Point: 48°   Wind: 14mph
Humidity: 52%   Direction: 200°SSW
Pressure: 29.97"   Gusts: NA
Location:  41.7361°N, 90.2145°W
Report Text: KCWI 242035Z 20012KT 10SM CLR 19/09 A2997 RMK AO1
Loading
Personal Weather Stations






























Interactive Weather Map
Tropical Storm Tracking
New forecast layout! Learn more

10-Day Weather Forecast

Advertisements
Track Severe Weather on mobile